Time;durP1;ratioP1;P1;durP2;ratioP2;P2;SDS_P1;SDS_P2;PMS_P1;PMS_P2;Temp;Humidity;BMP_temperature;BMP_pressure;BME280_temperature;BME280_humidity;BME280_pressure;Samples;Min_cycle;Max_cycle;Signal;HPM_P1;HPM_P2
2023/02/07 00:01:32;;;;;;;10.23;6.07;;;1.30;95.30;;;4.79;52.06;99423.47;5034273;28;20048;-41
2023/02/07 00:04:00;;;;;;;10.80;6.57;;;1.30;94.90;;;4.74;51.29;99424.56;5033790;28;20113;-42
2023/02/07 00:06:35;;;;;;;9.57;5.53;;;1.30;94.70;;;4.70;52.09;99436.22;5033995;28;20052;-41
2023/02/07 00:09:06;;;;;;;8.17;5.27;;;1.20;95.00;;;4.68;51.84;99448.66;5033618;28;20049;-40
2023/02/07 00:11:36;;;;;;;7.40;5.07;;;1.20;94.70;;;4.61;51.06;99439.34;5032336;28;20516;-41
2023/02/07 00:14:03;;;;;;;8.03;5.20;;;1.20;94.00;;;4.58;51.01;99446.56;5033563;28;20460;-43
2023/02/07 00:16:31;;;;;;;7.17;4.33;;;1.10;93.50;;;4.51;51.92;99452.16;5033912;28;20049;-41
2023/02/07 00:18:58;;;;;;;8.27;5.00;;;1.10;93.20;;;4.49;51.66;99445.25;5033772;28;20052;-43
2023/02/07 00:21:27;;;;;;;9.80;4.93;;;1.00;92.50;;;4.44;51.18;99447.25;5033564;28;20044;-42
2023/02/07 00:23:56;;;;;;;7.67;4.70;;;1.00;91.80;;;4.39;51.19;99439.59;5032431;28;20054;-41
2023/02/07 00:26:25;;;;;;;8.37;4.90;;;1.00;91.80;;;4.38;51.49;99434.41;5033796;28;20049;-40
2023/02/07 00:28:55;;;;;;;8.37;5.00;;;0.90;91.20;;;4.36;50.76;99437.09;5033713;28;20045;-41
2023/02/07 00:31:30;;;;;;;9.13;5.17;;;0.90;90.90;;;4.30;51.12;99435.66;5025818;28;20042;-41
2023/02/07 00:34:03;;;;;;;8.27;5.20;;;0.90;90.60;;;4.25;51.18;99432.41;5033381;28;20042;-41
2023/02/07 00:36:32;;;;;;;7.67;5.77;;;0.80;89.10;;;4.18;50.51;99414.31;5032354;28;20041;-43
2023/02/07 00:39:03;;;;;;;9.40;5.33;;;0.80;89.40;;;4.14;51.18;99432.91;5032083;28;20045;-41
2023/02/07 00:41:32;;;;;;;7.10;5.07;;;0.70;89.00;;;4.11;50.97;99432.22;5033138;28;20033;-41
2023/02/07 00:44:01;;;;;;;10.90;5.67;;;0.60;89.70;;;4.06;50.81;99443.00;5031153;28;20421;-41
2023/02/07 00:46:29;;;;;;;8.10;5.07;;;0.60;89.60;;;4.00;50.63;99443.31;5031837;28;20053;-41
2023/02/07 00:48:56;;;;;;;11.17;6.03;;;0.50;89.50;;;3.96;51.24;99436.50;5033273;28;20489;-41
2023/02/07 00:51:24;;;;;;;6.70;4.40;;;0.50;90.70;;;3.94;50.82;99447.09;5024873;28;20064;-42
2023/02/07 00:53:53;;;;;;;8.13;5.57;;;0.50;90.50;;;3.93;51.08;99437.47;5032268;28;20052;-41
2023/02/07 00:56:25;;;;;;;7.80;5.07;;;0.50;90.10;;;3.93;51.36;99431.34;5032212;28;20424;-42
2023/02/07 00:58:52;;;;;;;8.90;5.80;;;0.40;90.10;;;3.89;50.77;99417.47;5033224;28;20046;-41
2023/02/07 01:01:21;;;;;;;9.03;4.73;;;0.40;89.60;;;3.84;51.04;99422.13;5032119;28;20374;-42
2023/02/07 01:03:49;;;;;;;10.30;6.13;;;0.50;89.70;;;3.80;50.73;99427.63;5033047;28;20523;-41
2023/02/07 01:06:18;;;;;;;11.90;7.30;;;0.40;88.80;;;3.78;50.99;99432.09;5031945;28;20049;-41
2023/02/07 01:08:46;;;;;;;10.53;6.33;;;0.40;88.60;;;3.76;51.25;99429.53;5031697;28;20167;-41
2023/02/07 01:11:16;;;;;;;9.13;6.13;;;0.40;87.80;;;3.70;50.57;99428.09;5031226;28;20061;-42
2023/02/07 01:13:44;;;;;;;11.07;6.50;;;0.30;87.30;;;3.67;50.71;99430.00;5032384;28;20424;-43
2023/02/07 01:16:23;;;;;;;12.27;7.40;;;0.20;87.10;;;3.55;50.75;99423.56;5032684;28;20045;-41
2023/02/07 01:18:51;;;;;;;12.87;7.43;;;0.10;86.90;;;3.53;50.59;99430.69;5030942;28;20049;-43
2023/02/07 01:21:23;;;;;;;13.23;7.07;;;0.10;87.30;;;3.51;50.62;99429.91;5031145;28;20056;-42
2023/02/07 01:23:55;;;;;;;12.93;7.70;;;0.10;87.20;;;3.52;50.57;99436.84;5031386;28;20049;-41
2023/02/07 01:26:25;;;;;;;14.50;7.30;;;0.00;87.80;;;3.53;51.02;99455.22;5032727;28;20041;-41
2023/02/07 01:28:54;;;;;;;15.03;8.17;;;0.10;88.00;;;3.53;50.94;99452.59;5031143;28;20420;-41
2023/02/07 01:31:22;;;;;;;13.33;8.13;;;0.10;88.30;;;3.55;50.68;99448.09;5031215;28;20049;-42
2023/02/07 01:33:59;;;;;;;15.23;7.67;;;0.10;88.10;;;3.55;50.57;99448.09;5014730;28;20049;-41
2023/02/07 01:36:28;;;;;;;13.20;7.30;;;0.10;88.50;;;3.54;50.80;99446.38;5024700;28;20045;-44
2023/02/07 01:38:56;;;;;;;9.27;6.40;;;0.10;88.20;;;3.53;50.76;99446.47;5030950;28;20049;-41
2023/02/07 01:41:26;;;;;;;12.67;7.37;;;0.10;88.80;;;3.51;50.82;99443.91;5024093;28;20048;-41
2023/02/07 01:44:06;;;;;;;9.93;6.37;;;0.10;88.80;;;3.45;50.88;99452.09;5031004;28;20045;-41
2023/02/07 01:46:34;;;;;;;11.90;7.53;;;0.00;88.00;;;3.39;50.50;99449.72;5040895;28;20053;-42
2023/02/07 01:49:12;;;;;;;12.57;7.97;;;0.00;88.60;;;3.33;50.83;99448.28;5032209;28;20421;-41
2023/02/07 01:51:51;;;;;;;14.30;8.30;;;-0.10;87.20;;;3.33;50.64;99450.03;5030738;28;20492;-44
2023/02/07 01:54:24;;;;;;;13.73;7.13;;;-0.10;88.30;;;3.35;50.68;99451.69;5014452;28;20053;-41
2023/02/07 01:56:57;;;;;;;17.27;8.87;;;-0.10;88.40;;;3.32;50.92;99443.06;5032038;28;20060;-43
2023/02/07 01:59:26;;;;;;;13.93;8.50;;;-0.10;87.90;;;3.27;50.92;99432.72;5007263;28;20050;-42
2023/02/07 02:01:55;;;;;;;13.33;9.43;;;-0.10;87.80;;;3.24;50.46;99429.38;5028401;28;20045;-41
2023/02/07 02:04:24;;;;;;;14.07;8.37;;;-0.20;88.30;;;3.20;50.60;99436.59;5021418;28;20041;-41
2023/02/07 02:06:52;;;;;;;18.60;10.37;;;-0.30;88.70;;;3.18;50.99;99427.03;5014346;28;20046;-42
2023/02/07 02:09:20;;;;;;;11.90;8.03;;;-0.30;89.00;;;3.18;50.57;99437.56;5038556;28;20052;-41
2023/02/07 02:12:32;;;;;;;15.77;9.07;;;-0.30;89.10;;;3.07;51.21;99438.94;5013987;28;20053;-42
2023/02/07 02:15:29;;;;;;;13.90;8.17;;;-0.30;88.90;;;3.08;51.04;99435.38;5028585;28;20049;-41
2023/02/07 02:18:41;;;;;;;18.87;8.67;;;-0.30;88.70;;;3.02;50.89;99433.00;5030259;28;20050;-41
2023/02/07 02:21:47;;;;;;;15.67;8.40;;;-0.40;89.00;;;2.89;50.83;99424.84;5028845;28;20049;-42
2023/02/07 02:25:10;;;;;;;13.13;8.57;;;-0.40;88.30;;;2.89;51.31;99427.47;5029750;28;20049;-42
2023/02/07 02:28:37;;;;;;;16.57;8.57;;;-0.40;88.30;;;2.84;50.87;99421.56;5024344;28;20057;-41
2023/02/07 02:31:53;;;;;;;15.70;9.80;;;-0.50;88.50;;;2.86;51.02;99424.13;5027686;28;20053;-42
2023/02/07 02:34:42;;;;;;;11.90;7.90;;;-0.40;88.20;;;2.87;50.87;99438.97;5031025;28;20041;-41
2023/02/07 02:37:44;;;;;;;16.40;9.57;;;-0.50;87.40;;;2.83;50.73;99433.00;5030368;28;20409;-42
2023/02/07 02:40:48;;;;;;;13.47;9.00;;;-0.50;88.20;;;2.84;50.98;99441.75;5029781;28;20050;-41
2023/02/07 02:43:43;;;;;;;16.53;9.80;;;-0.50;87.70;;;2.79;51.11;99423.53;5014939;28;20442;-41
2023/02/07 02:46:24;;;;;;;14.30;8.88;;;-0.50;87.10;;;2.80;50.66;99433.13;5021786;28;20056;-41
2023/02/07 02:48:55;;;;;;;12.90;7.97;;;-0.60;86.40;;;2.79;50.71;99434.03;5029596;28;20041;-42
2023/02/07 02:51:22;;;;;;;14.83;8.67;;;-0.60;86.80;;;2.78;50.77;99437.63;5029905;28;20501;-41
2023/02/07 02:53:55;;;;;;;15.13;9.23;;;-0.60;85.80;;;2.76;50.25;99432.41;5029665;28;20059;-41
2023/02/07 02:57:08;;;;;;;14.03;9.03;;;-0.60;85.70;;;2.72;50.46;99443.16;5014761;28;20045;-41
2023/02/07 02:59:50;;;;;;;13.87;9.47;;;-0.70;85.60;;;2.71;51.09;99446.69;5025009;28;20041;-41
2023/02/07 03:02:27;;;;;;;12.70;8.23;;;-0.70;85.40;;;2.68;50.64;99449.47;5029795;28;20053;-41
2023/02/07 03:05:01;;;;;;;15.90;8.93;;;-0.70;86.00;;;2.69;50.38;99459.06;5028497;28;20057;-41
2023/02/07 03:07:53;;;;;;;13.13;8.95;;;-0.70;86.10;;;2.67;50.74;99466.16;5022453;28;20044;-41
2023/02/07 03:10:39;;;;;;;14.43;8.83;;;-0.70;84.70;;;2.65;50.40;99470.63;5022663;28;20041;-41
2023/02/07 03:13:15;;;;;;;13.97;9.70;;;-0.70;85.60;;;2.68;50.24;99487.13;5029534;28;20062;-41
2023/02/07 03:16:16;;;;;;;15.97;10.37;;;-0.70;85.10;;;2.61;50.69;99475.16;5029488;28;20064;-41
2023/02/07 03:19:21;;;;;;;18.10;10.53;;;-0.70;84.90;;;2.60;50.33;99481.38;5009816;28;20401;-41
2023/02/07 03:21:56;;;;;;;14.90;9.50;;;-0.80;84.40;;;2.62;50.43;99476.00;5024808;28;20045;-41
2023/02/07 03:24:33;;;;;;;15.73;9.47;;;-0.80;84.70;;;2.61;49.96;99474.31;5021445;28;20048;-41
2023/02/07 03:27:07;;;;;;;15.93;9.87;;;-0.80;84.60;;;2.61;50.08;99475.16;5030836;28;20382;-41
2023/02/07 03:29:38;;;;;;;13.13;9.77;;;-0.80;84.40;;;2.63;50.36;99477.75;5013047;28;20246;-41
2023/02/07 03:32:09;;;;;;;16.93;10.23;;;-0.80;84.60;;;2.64;50.02;99480.31;5029163;28;20045;-40
2023/02/07 03:35:36;;;;;;;17.30;11.13;;;-0.80;84.50;;;2.54;50.34;99486.91;5029709;28;20072;-41
2023/02/07 03:38:05;;;;;;;17.50;11.17;;;-0.80;83.90;;;2.62;49.95;99481.28;5028057;28;20042;-41
2023/02/07 03:40:41;;;;;;;17.03;10.80;;;-0.80;84.10;;;2.59;50.13;99481.41;5029386;28;20390;-41
2023/02/07 03:43:30;;;;;;;17.07;11.17;;;-0.90;83.60;;;2.55;50.01;99472.81;5029055;28;20049;-41
2023/02/07 03:45:58;;;;;;;16.97;11.13;;;-0.90;83.60;;;2.55;50.47;99475.44;5029246;28;20042;-41
2023/02/07 03:48:26;;;;;;;15.77;10.60;;;-0.90;84.90;;;2.52;49.79;99468.53;5030394;28;20045;-41
2023/02/07 03:50:53;;;;;;;17.53;11.80;;;-0.90;84.10;;;2.52;49.83;99475.56;5030473;28;20046;-41
2023/02/07 03:53:21;;;;;;;17.33;11.10;;;-0.90;84.20;;;2.50;50.15;99477.41;5030112;28;20053;-41
2023/02/07 03:55:48;;;;;;;17.70;11.47;;;-0.90;84.50;;;2.48;50.13;99474.84;5030576;28;20068;-41
2023/02/07 03:58:16;;;;;;;15.90;11.30;;;-1.00;84.10;;;2.44;49.95;99478.50;5030246;28;20412;-41
2023/02/07 04:00:44;;;;;;;16.73;12.03;;;-1.00;84.10;;;2.45;49.97;99476.75;5030396;28;20038;-41
2023/02/07 04:03:12;;;;;;;17.87;10.77;;;-1.00;84.50;;;2.44;50.11;99478.50;5030067;28;20389;-40
2023/02/07 04:05:39;;;;;;;17.73;10.93;;;-1.00;84.30;;;2.42;50.04;99475.09;5030445;28;20037;-41
2023/02/07 04:08:07;;;;;;;15.43;11.10;;;-1.10;84.80;;;2.42;49.95;99471.63;5030351;28;20370;-43
2023/02/07 04:10:34;;;;;;;16.27;11.33;;;-1.10;85.00;;;2.41;50.07;99456.78;5030496;28;20044;-41
2023/02/07 04:13:02;;;;;;;15.53;10.43;;;-1.10;85.10;;;2.39;49.87;99454.22;5029588;28;20049;-41
2023/02/07 04:15:30;;;;;;;18.73;11.53;;;-1.10;84.70;;;2.39;50.36;99448.97;5030468;28;20502;-41
2023/02/07 04:17:57;;;;;;;17.43;12.13;;;-1.10;84.80;;;2.38;49.64;99446.38;5030325;28;20072;-41
2023/02/07 04:20:25;;;;;;;20.27;11.77;;;-1.10;85.00;;;2.39;50.22;99448.09;5022307;28;20034;-41
2023/02/07 04:22:52;;;;;;;20.83;11.57;;;-1.00;84.90;;;2.36;49.90;99449.06;5030006;28;20536;-41
2023/02/07 04:25:20;;;;;;;17.93;12.13;;;-1.10;84.70;;;2.34;49.92;99451.75;5030307;28;20033;-41
2023/02/07 04:27:50;;;;;;;21.60;11.47;;;-1.10;84.70;;;2.34;49.78;99462.28;5032806;28;20388;-40
2023/02/07 04:30:18;;;;;;;17.83;10.87;;;-1.10;85.00;;;2.31;50.29;99456.31;5033440;28;20056;-41
2023/02/07 04:32:46;;;;;;;18.67;11.10;;;-1.20;84.60;;;2.25;50.38;99446.03;5033485;28;20481;-40
2023/02/07 04:35:13;;;;;;;19.37;11.93;;;-1.20;84.70;;;2.24;49.79;99439.09;5033609;28;20053;-41
2023/02/07 04:37:41;;;;;;;16.67;10.67;;;-1.30;84.60;;;2.22;50.35;99449.66;5033651;28;20049;-41
2023/02/07 04:40:09;;;;;;;16.90;11.03;;;-1.30;84.70;;;2.17;50.08;99449.88;5033568;28;20041;-41
2023/02/07 04:42:37;;;;;;;17.73;10.57;;;-1.30;85.30;;;2.15;50.48;99446.44;5033294;28;20515;-41
2023/02/07 04:45:05;;;;;;;20.17;11.37;;;-1.30;85.10;;;2.14;50.16;99449.13;5033245;28;20048;-41
2023/02/07 04:47:32;;;;;;;18.07;10.70;;;-1.30;85.50;;;2.10;50.71;99445.78;5032275;28;20048;-41
2023/02/07 04:50:00;;;;;;;16.40;10.10;;;-1.40;85.10;;;2.08;50.00;99444.16;5033327;28;20424;-41
2023/02/07 04:52:27;;;;;;;19.97;11.33;;;-1.40;85.60;;;2.06;50.39;99445.97;5033065;28;20056;-41
2023/02/07 04:54:55;;;;;;;15.27;10.30;;;-1.50;85.40;;;2.04;50.42;99447.81;5033719;28;20068;-41
2023/02/07 04:57:22;;;;;;;17.23;11.10;;;-1.40;85.70;;;2.01;50.13;99448.78;5033247;28;20041;-40
2023/02/07 04:59:50;;;;;;;33.60;18.73;;;-1.50;85.60;;;2.01;49.99;99450.56;5033229;28;20418;-41
2023/02/07 05:02:17;;;;;;;24.30;15.47;;;-1.40;85.70;;;1.99;50.14;99448.00;5029881;28;20041;-40
2023/02/07 05:04:45;;;;;;;19.93;11.83;;;-1.40;85.50;;;1.94;49.96;99447.34;5033034;28;20504;-41
2023/02/07 05:07:12;;;;;;;20.40;12.37;;;-1.50;85.60;;;1.93;50.23;99446.47;5031949;28;20050;-41
2023/02/07 05:09:40;;;;;;;16.90;11.67;;;-1.50;85.70;;;1.89;50.48;99442.25;5033266;28;20045;-40
2023/02/07 05:12:07;;;;;;;20.67;11.27;;;-1.60;85.70;;;1.88;50.49;99434.44;5033019;28;20076;-40
2023/02/07 05:14:35;;;;;;;16.57;10.30;;;-1.60;85.80;;;1.88;50.48;99444.94;5032992;28;20056;-40
2023/02/07 05:17:03;;;;;;;29.97;14.97;;;-1.60;85.70;;;1.84;50.27;99440.75;5039772;28;20053;-40
2023/02/07 05:19:32;;;;;;;26.63;13.33;;;-1.60;85.10;;;1.83;50.56;99439.03;5032736;28;20551;-40
2023/02/07 05:22:00;;;;;;;22.70;13.80;;;-1.70;85.50;;;1.79;50.11;99443.56;5032544;28;20041;-41
2023/02/07 05:24:27;;;;;;;24.20;15.37;;;-1.70;85.80;;;1.77;50.56;99445.41;5032792;28;20428;-41
2023/02/07 05:26:55;;;;;;;39.60;21.03;;;-1.70;85.90;;;1.73;50.55;99442.03;5031683;28;20049;-40
2023/02/07 05:29:23;;;;;;;26.07;16.93;;;-1.70;85.90;;;1.69;50.11;99432.56;5032648;28;20053;-41
2023/02/07 05:34:36;;;;;;;30.73;15.20;;;-1.80;85.40;;;1.63;50.22;99430.19;5026395;28;20041;-40
2023/02/07 05:37:04;;;;;;;31.07;16.83;;;-1.80;85.50;;;1.60;50.53;99430.31;5032278;28;20049;-40
2023/02/07 05:39:31;;;;;;;26.37;15.43;;;-1.80;85.80;;;1.62;50.13;99431.09;5031329;28;20060;-40
2023/02/07 05:41:59;;;;;;;43.00;20.77;;;-1.80;86.10;;;1.64;50.24;99436.28;5032182;28;20038;-40
2023/02/07 05:44:26;;;;;;;28.50;16.03;;;-1.90;86.10;;;1.64;50.54;99434.53;5032212;28;20049;-40
2023/02/07 05:46:54;;;;;;;24.87;13.23;;;-1.80;85.80;;;1.63;50.16;99432.81;5031070;28;20057;-40
2023/02/07 05:49:22;;;;;;;25.07;15.00;;;-1.80;86.10;;;1.62;50.64;99443.38;5032282;28;20052;-40
2023/02/07 05:51:49;;;;;;;27.40;16.10;;;-1.80;85.80;;;1.60;50.20;99438.19;5031992;28;20448;-40
2023/02/07 05:54:17;;;;;;;24.83;13.37;;;-1.80;86.20;;;1.60;50.48;99437.34;5032178;28;20384;-41
2023/02/07 05:56:45;;;;;;;19.17;10.97;;;-1.90;86.00;;;1.60;50.17;99440.81;5032361;28;20053;-40
2023/02/07 05:59:12;;;;;;;24.43;12.13;;;-1.80;86.00;;;1.61;50.09;99439.03;5032309;28;20053;-40
2023/02/07 06:01:40;;;;;;;17.40;11.87;;;-1.80;85.60;;;1.65;50.13;99446.75;5030677;28;20409;-41
2023/02/07 06:04:08;;;;;;;21.17;11.20;;;-1.70;85.20;;;1.67;50.56;99444.91;5030996;28;20042;-40
2023/02/07 06:06:35;;;;;;;19.07;11.53;;;-1.70;84.60;;;1.67;50.49;99449.31;5031869;28;20056;-41
2023/02/07 06:09:03;;;;;;;18.07;10.87;;;-1.70;83.70;;;1.62;50.56;99444.22;5031816;28;20048;-40
2023/02/07 06:11:31;;;;;;;25.30;12.20;;;-1.70;83.70;;;1.63;50.49;99440.69;5031676;28;20421;-40
2023/02/07 06:13:58;;;;;;;19.27;10.87;;;-1.70;84.30;;;1.67;49.75;99437.03;5031473;28;20060;-40
2023/02/07 06:16:26;;;;;;;17.83;11.93;;;-1.70;83.60;;;1.64;49.88;99434.53;5031824;28;20417;-40
2023/02/07 06:18:53;;;;;;;18.27;10.60;;;-1.80;83.70;;;1.64;49.96;99429.25;5030589;28;20076;-39
2023/02/07 06:21:21;;;;;;;19.83;11.80;;;-1.80;84.10;;;1.61;49.84;99424.16;5031632;28;20044;-40
2023/02/07 06:23:50;;;;;;;21.77;12.03;;;-1.80;83.40;;;1.62;50.08;99435.50;5031152;28;20049;-40
2023/02/07 06:26:18;;;;;;;16.00;11.10;;;-1.80;83.80;;;1.67;49.75;99441.44;5031531;28;20409;-39
2023/02/07 06:28:46;;;;;;;21.97;11.87;;;-1.80;83.30;;;1.61;50.24;99434.66;5031798;28;20045;-39
2023/02/07 06:31:13;;;;;;;17.87;10.93;;;-1.80;82.80;;;1.62;50.33;99432.88;5030327;28;20049;-39
2023/02/07 06:33:41;;;;;;;16.70;10.83;;;-1.80;83.20;;;1.66;50.32;99445.81;5031119;28;20498;-39
2023/02/07 06:36:09;;;;;;;16.87;11.13;;;-1.70;83.80;;;1.66;49.74;99456.31;5031044;28;20418;-39
2023/02/07 06:38:36;;;;;;;15.50;11.23;;;-1.70;83.10;;;1.69;49.69;99452.72;5031415;28;20064;-40
2023/02/07 06:41:04;;;;;;;20.03;11.37;;;-1.80;82.60;;;1.66;49.90;99452.84;5031328;28;20523;-39
2023/02/07 06:43:32;;;;;;;22.80;12.37;;;-1.80;82.40;;;1.64;50.20;99452.06;5030416;28;20045;-40
2023/02/07 06:45:59;;;;;;;16.90;11.17;;;-1.80;83.20;;;1.62;49.56;99452.09;5030161;28;20045;-40
2023/02/07 06:48:27;;;;;;;25.23;11.67;;;-1.80;83.30;;;1.62;49.96;99462.59;5031375;28;20520;-39
2023/02/07 06:50:54;;;;;;;26.07;13.87;;;-1.80;82.90;;;1.59;50.30;99465.38;5030463;28;20489;-39
2023/02/07 06:53:22;;;;;;;28.07;14.93;;;-1.90;83.20;;;1.56;49.80;99458.44;5031053;28;20057;-38
2023/02/07 06:55:50;;;;;;;18.23;11.33;;;-1.80;83.20;;;1.58;49.38;99463.66;5031947;28;20056;-40
2023/02/07 06:58:17;;;;;;;29.70;13.73;;;-1.90;83.10;;;1.59;50.05;99465.38;5031109;28;20535;-39
2023/02/07 07:00:45;;;;;;;31.23;15.50;;;-1.90;82.90;;;1.61;49.80;99473.16;5030991;28;20049;-39
2023/02/07 07:03:14;;;;;;;18.10;11.00;;;-1.90;83.10;;;1.60;49.99;99472.31;5029410;28;20489;-39
2023/02/07 07:05:43;;;;;;;18.23;11.07;;;-1.80;82.90;;;1.60;49.39;99482.81;5029011;28;20041;-39
2023/02/07 07:08:13;;;;;;;15.10;10.30;;;-1.80;82.30;;;1.58;49.46;99485.50;5029430;28;20412;-39
2023/02/07 07:10:41;;;;;;;18.87;11.23;;;-1.80;82.10;;;1.58;49.51;99487.28;5029882;28;20041;-39
2023/02/07 07:13:09;;;;;;;17.43;11.17;;;-1.80;81.60;;;1.57;49.73;99481.19;5030384;28;20056;-39
2023/02/07 07:15:36;;;;;;;18.37;11.40;;;-1.80;81.90;;;1.58;50.00;99484.66;5030757;28;20045;-39
2023/02/07 07:18:04;;;;;;;30.33;15.23;;;-1.80;82.00;;;1.58;49.87;99492.53;5029415;28;20056;-40
2023/02/07 07:20:32;;;;;;;20.83;11.60;;;-1.90;82.20;;;1.58;49.29;99498.63;5030768;28;20048;-40
2023/02/07 07:22:59;;;;;;;22.83;13.10;;;-1.80;82.80;;;1.60;50.03;99497.72;5030576;28;20052;-40
2023/02/07 07:25:27;;;;;;;21.90;12.50;;;-1.80;82.80;;;1.62;49.63;99494.13;5030867;28;20676;-39
2023/02/07 07:27:56;;;;;;;26.13;14.37;;;-1.70;82.70;;;1.67;49.91;99499.22;5030505;28;20589;-39
2023/02/07 07:30:24;;;;;;;21.53;12.77;;;-1.70;82.80;;;1.68;49.89;99496.50;5030601;28;20044;-39
2023/02/07 07:32:51;;;;;;;36.07;15.40;;;-1.70;82.80;;;1.66;49.72;99505.34;5030286;28;20528;-39
2023/02/07 07:35:19;;;;;;;27.20;14.73;;;-1.70;82.00;;;1.63;50.04;99495.84;5030456;28;20535;-39
2023/02/07 07:37:46;;;;;;;24.83;14.27;;;-1.80;83.30;;;1.64;50.05;99492.28;5030376;28;20049;-39
2023/02/07 07:40:14;;;;;;;41.07;17.13;;;-1.80;82.80;;;1.66;49.71;99486.97;5030546;28;20054;-40
2023/02/07 07:42:41;;;;;;;52.70;19.60;;;-1.80;82.60;;;1.63;50.48;99492.34;5029969;28;20049;-39
2023/02/07 07:45:19;;;;;;;39.63;15.70;;;-1.80;82.90;;;1.62;50.23;99491.50;5029576;28;20041;-39
2023/02/07 07:47:47;;;;;;;32.93;15.37;;;-1.80;83.60;;;1.64;50.29;99492.28;5029270;28;20049;-40
2023/02/07 07:50:15;;;;;;;27.90;14.43;;;-1.80;83.80;;;1.69;50.21;99490.34;5029078;28;20431;-40
2023/02/07 07:52:42;;;;;;;32.57;14.10;;;-1.70;83.50;;;1.71;50.03;99488.50;5030039;28;20030;-39
2023/02/07 07:55:10;;;;;;;35.83;15.07;;;-1.70;83.50;;;1.70;49.95;99492.03;5037671;28;20052;-40
2023/02/07 07:57:39;;;;;;;39.13;16.43;;;-1.70;83.30;;;1.70;49.78;99492.03;5030417;28;20048;-40
2023/02/07 08:00:07;;;;;;;38.67;14.97;;;-1.70;83.80;;;1.72;50.41;99500.72;5030001;28;20124;-39
2023/02/07 08:02:41;;;;;;;29.60;14.35;;;-1.70;83.80;;;1.77;49.78;99497.91;5027996;28;20045;-39
2023/02/07 08:05:10;;;;;;;23.07;13.37;;;-1.60;83.70;;;1.82;50.12;99502.97;5032774;28;20394;-39
2023/02/07 08:07:40;;;;;;;33.63;16.87;;;-1.60;83.30;;;1.83;49.62;99507.34;5034133;28;20045;-39
2023/02/07 08:10:08;;;;;;;29.90;15.07;;;-1.60;82.70;;;1.83;49.80;99504.72;5033499;28;20042;-39
2023/02/07 08:12:35;;;;;;;37.77;16.57;;;-1.60;83.30;;;1.82;50.08;99509.06;5040628;28;20120;-40
2023/02/07 08:15:03;;;;;;;20.63;12.63;;;-1.60;83.10;;;1.87;49.94;99527.31;5034207;28;20424;-40
2023/02/07 08:17:31;;;;;;;17.53;9.83;;;-1.50;83.00;;;1.88;50.10;99529.88;5034136;28;20412;-39
2023/02/07 08:19:58;;;;;;;18.23;9.67;;;-1.50;82.50;;;1.89;49.62;99528.09;5034013;28;20380;-39
2023/02/07 08:22:26;;;;;;;30.70;13.73;;;-1.40;81.90;;;1.93;50.14;99533.16;5025425;28;20053;-39
2023/02/07 08:24:53;;;;;;;19.53;10.03;;;-1.40;81.10;;;1.97;49.82;99528.63;5033927;28;20050;-39
2023/02/07 08:27:21;;;;;;;17.70;10.87;;;-1.40;80.50;;;2.01;49.98;99542.50;5033908;28;20037;-39
2023/02/07 08:29:48;;;;;;;17.10;10.37;;;-1.40;80.70;;;2.07;49.40;99544.88;5032395;28;20037;-39
2023/02/07 08:32:16;;;;;;;14.73;9.57;;;-1.40;80.70;;;2.10;49.61;99550.88;5032980;28;20424;-39
2023/02/07 08:34:44;;;;;;;15.97;8.60;;;-1.30;80.40;;;2.12;49.54;99563.97;5033693;28;20041;-39
2023/02/07 08:37:12;;;;;;;17.47;9.80;;;-1.20;79.40;;;2.16;49.31;99555.88;5033599;28;20053;-39
2023/02/07 08:39:39;;;;;;;16.47;8.90;;;-1.10;78.90;;;2.19;49.40;99559.31;5033154;28;20073;-39
2023/02/07 08:42:08;;;;;;;11.53;8.40;;;-1.10;78.50;;;2.21;49.02;99558.34;5033247;28;20045;-39
2023/02/07 08:44:36;;;;;;;16.20;9.80;;;-1.20;78.40;;;2.22;49.39;99557.41;5033486;28;20041;-39
2023/02/07 08:47:04;;;;;;;14.47;8.93;;;-1.20;78.90;;;2.22;49.16;99557.41;5032128;28;20084;-39
2023/02/07 08:49:31;;;;;;;17.77;8.70;;;-1.20;78.30;;;2.25;48.98;99559.94;5031884;28;20429;-39
2023/02/07 08:51:59;;;;;;;13.70;8.97;;;-1.10;78.20;;;2.31;48.91;99553.56;5033318;28;20048;-39
2023/02/07 08:54:26;;;;;;;12.47;7.93;;;-1.10;77.80;;;2.33;49.12;99555.22;5033480;28;20053;-39
2023/02/07 08:56:54;;;;;;;17.10;9.10;;;-1.10;76.80;;;2.35;48.52;99548.13;5034284;28;20053;-39
2023/02/07 08:59:21;;;;;;;16.57;8.60;;;-1.10;76.70;;;2.34;48.86;99535.88;5033114;28;20046;-39
2023/02/07 09:01:49;;;;;;;17.40;9.50;;;-1.10;77.40;;;2.36;48.64;99539.31;5031681;28;20046;-41
2023/02/07 09:04:17;;;;;;;26.40;11.47;;;-1.10;76.80;;;2.41;48.84;99538.28;5032283;28;20049;-39
2023/02/07 09:06:44;;;;;;;24.83;12.73;;;-1.00;76.70;;;2.44;48.98;99538.13;5033121;28;20045;-39
2023/02/07 09:09:12;;;;;;;27.90;14.23;;;-1.00;77.20;;;2.50;48.73;99538.75;5033042;28;20101;-40
2023/02/07 09:11:39;;;;;;;14.83;8.97;;;-0.90;76.90;;;2.56;48.50;99538.50;5032800;28;20421;-40
2023/02/07 09:14:07;;;;;;;14.50;9.07;;;-0.80;76.50;;;2.58;48.31;99541.06;5032714;28;20041;-39
2023/02/07 09:16:35;;;;;;;16.40;9.33;;;-0.80;75.60;;;2.60;48.52;99538.34;5033410;28;20048;-39
2023/02/07 09:19:02;;;;;;;15.20;8.57;;;-0.70;75.60;;;2.63;48.54;99535.59;5033060;28;20057;-39
2023/02/07 09:21:32;;;;;;;11.77;7.67;;;-0.70;75.40;;;2.67;48.45;99535.38;5031627;28;20034;-39
2023/02/07 09:23:59;;;;;;;14.40;8.17;;;-0.70;75.30;;;2.71;48.57;99534.34;5032575;28;20045;-39
2023/02/07 09:26:28;;;;;;;13.50;8.13;;;-0.60;74.90;;;2.74;48.43;99546.50;5034122;28;20041;-39
2023/02/07 09:28:55;;;;;;;15.80;8.13;;;-0.70;74.90;;;2.77;48.16;99541.09;5033385;28;20057;-39
2023/02/07 09:31:23;;;;;;;15.03;9.73;;;-0.60;75.00;;;2.83;48.62;99547.88;5033171;28;20417;-39
2023/02/07 09:33:51;;;;;;;14.47;8.20;;;-0.60;75.50;;;2.88;47.96;99553.81;5031360;28;20053;-39
2023/02/07 09:36:24;;;;;;;16.20;9.53;;;-0.50;74.70;;;2.90;47.84;99551.97;5032371;28;20049;-39
2023/02/07 09:38:54;;;;;;;13.60;8.30;;;-0.50;74.50;;;2.93;47.88;99549.22;5031808;28;20053;-39
2023/02/07 09:41:41;;;;;;;12.43;7.27;;;-0.50;74.50;;;2.92;47.73;99558.88;5030937;28;20037;-39
2023/02/07 09:44:52;;;;;;;11.93;7.27;;;-0.40;73.60;;;2.90;48.29;99567.75;5031059;28;20497;-39
2023/02/07 09:47:23;;;;;;;11.57;7.00;;;-0.30;73.50;;;3.01;47.94;99568.16;5031501;28;20072;-39
2023/02/07 09:50:04;;;;;;;16.90;8.47;;;-0.30;73.90;;;3.01;48.20;99575.19;5032106;28;20056;-39
2023/02/07 09:52:51;;;;;;;17.10;8.03;;;-0.30;74.00;;;3.07;48.34;99565.25;5023955;28;20047;-39
2023/02/07 09:55:40;;;;;;;17.30;8.97;;;-0.20;73.50;;;3.10;47.92;99564.25;5031136;28;20052;-39
2023/02/07 09:58:36;;;;;;;12.37;8.13;;;-0.30;73.70;;;3.15;47.90;99565.75;5031000;28;20045;-39
2023/02/07 10:01:18;;;;;;;12.17;8.33;;;-0.20;72.90;;;3.21;47.84;99569.06;5031047;28;20037;-39
2023/02/07 10:04:07;;;;;;;13.37;7.57;;;-0.10;70.70;;;3.20;48.01;99567.34;5031701;28;20460;-39
2023/02/07 10:06:38;;;;;;;14.17;8.53;;;-0.10;72.90;;;3.29;47.69;99572.19;5023530;28;20052;-40
2023/02/07 10:09:15;;;;;;;14.90;9.30;;;0.00;73.30;;;3.34;47.96;99578.13;5030796;28;20049;-40
2023/02/07 10:11:59;;;;;;;18.47;8.37;;;0.00;72.80;;;3.38;47.60;99569.16;5030630;28;20073;-40
2023/02/07 10:15:24;;;;;;;17.30;9.02;;;0.00;73.20;;;3.35;47.90;99572.78;5030709;28;20390;-39
2023/02/07 10:18:00;;;;;;;;;;;0.10;71.90;;;3.37;48.08;99577.97;5026765;28;20061;-40
2023/02/07 10:21:11;;;;;;;15.53;8.73;;;0.10;71.40;;;3.44;48.00;99575.94;5024208;28;19921;-39
2023/02/07 10:23:44;;;;;;;17.27;8.83;;;0.20;73.10;;;3.53;47.43;99575.53;5023669;28;20064;-39
2023/02/07 10:26:38;;;;;;;15.97;7.90;;;0.20;72.50;;;3.54;48.07;99582.47;5031105;28;20056;-40
2023/02/07 10:29:43;;;;;;;15.30;8.63;;;0.20;73.20;;;3.57;48.21;99582.34;5031274;28;20041;-39
2023/02/07 10:32:22;;;;;;;18.47;9.47;;;0.30;72.70;;;3.63;47.52;99571.53;5031333;28;20052;-39
2023/02/07 10:34:55;;;;;;;19.77;10.80;;;0.30;72.30;;;3.70;47.35;99577.38;5031663;28;20052;-39
2023/02/07 10:37:27;;;;;;;17.57;9.43;;;0.40;72.40;;;3.74;46.97;99577.16;5030421;28;20041;-39
2023/02/07 10:40:28;;;;;;;17.47;10.47;;;0.40;71.60;;;3.72;47.18;99576.38;5031203;28;20060;-39
2023/02/07 10:43:11;;;;;;;18.20;9.77;;;0.40;71.30;;;3.78;47.21;99574.38;5025392;28;20045;-40
2023/02/07 10:45:41;;;;;;;15.33;9.73;;;0.50;71.20;;;3.84;46.91;99574.97;5025185;28;20382;-40